Latest Weather Observations for Double Island Point

IDQ60801

Issued at 6:02 am EST Friday 6 May 2016 (issued every 30 minutes, with the page automatically refreshed every 10 minutes)

About weather observations | Map of weather stations | Latest weather observations for QLD | Other Formats
Station Details ID: 040068 Name: DOUBLE ISLAND POINT LIGHTHOUSE Lat: -25.93 Lon: 153.19 Height: 95.64 m
Data from the previous 72 hours. | See also: Recent months at Double Island Point
Date/Time
EST
Temp
°C
App
Temp
°C
Dew
Point
Rel
Hum
%
Delta-T
°C
Wind Press
QNH
hPa
Press
MSL
hPa
Rain
since 9 am
mm
Dir
 
Spd
km/h
Gust
km/h
Spd
kts
Gust
kts
06/06:00am 20.9 18.1 18.3 85 1.6 SSE 30 37 16 20 1017.5 1017.2 0.0
06/05:30am 20.6 18.8 17.8 84 1.7 S 24 30 13 16 1017.4 1017.1 0.0
06/05:00am 20.7 19.3 17.9 84 1.7 S 22 28 12 15 1017.3 1017.0 0.0
06/04:30am 21.0 20.0 17.6 81 2.1 S 19 26 10 14 1017.4 1017.1 0.0
06/04:00am 21.9 20.7 17.1 74 2.9 SE 19 20 10 11 1017.4 1017.1 0.0
06/03:30am 21.9 20.5 17.1 74 3.0 SE 20 26 11 14 1017.0 1016.7 0.0
06/03:00am 22.1 20.1 17.5 75 2.8 ESE 24 28 13 15 1017.0 1016.7 0.0
06/02:30am 22.2 19.9 17.6 75 2.9 SE 26 33 14 18 1017.1 1016.8 0.0
06/02:00am 22.1 20.4 17.2 74 3.0 SE 22 26 12 14 1017.6 1017.3 0.0
06/01:30am 22.1 20.8 17.2 74 3.0 SE 20 24 11 13 1017.9 1017.6 0.0
06/01:00am 22.1 20.8 17.2 74 3.0 SE 20 28 11 15 1018.0 1017.7 0.0
06/12:30am 22.1 20.3 17.0 73 3.1 SE 22 28 12 15 1018.1 1017.8 0.0
06/12:00am 22.2 20.4 16.9 72 3.2 SE 22 26 12 14 1018.3 1018.0 0.0
 
Date/Time
EST
Temp
°C
App
Temp
°C
Dew
Point
Rel
Hum
%
Delta-T
°C
Wind Press
QNH
hPa
Press
MSL
hPa
Rain
since 9 am
mm
Dir
 
Spd
km/h
Gust
km/h
Spd
kts
Gust
kts
05/11:30pm 22.3 19.5 17.2 73 3.1 SE 28 32 15 17 1018.3 1018.0 0.0
05/11:00pm 22.5 20.1 17.4 73 3.2 SE 26 32 14 17 1018.5 1018.2 0.0
05/10:30pm 22.4 20.2 17.8 75 2.9 SE 26 30 14 16 1018.7 1018.4 0.0
05/10:00pm 22.4 20.4 17.3 73 3.1 SE 24 28 13 15 1018.9 1018.6 0.0
05/09:30pm 22.4 19.9 17.1 72 3.3 ESE 26 32 14 17 1019.0 1018.7 0.0
05/09:00pm 22.4 20.3 17.1 72 3.3 ESE 24 28 13 15 1019.1 1018.8 0.0
05/08:30pm 22.4 20.4 17.3 73 3.2 SE 24 30 13 16 1019.1 1018.8 0.0
05/08:00pm 22.5 19.6 17.0 71 3.4 SE 28 32 15 17 1019.1 1018.8 0.0
05/07:30pm 22.5 20.3 16.8 70 3.5 SE 24 30 13 16 1018.9 1018.6 0.0
05/07:00pm 22.4 19.7 16.7 70 3.5 SE 26 30 14 16 1018.6 1018.3 0.0
05/06:30pm 22.5 20.3 16.8 70 3.5 ESE 24 30 13 16 1018.3 1018.0 0.0
05/06:00pm 22.5 19.6 17.0 71 3.4 SE 28 32 15 17 1017.8 1017.5 0.0
05/05:30pm 22.5 19.4 16.5 69 3.7 SE 28 32 15 17 1017.6 1017.3 0.0
05/05:00pm 22.6 19.5 16.6 69 3.7 SE 28 32 15 17 1017.4 1017.1 0.0
05/04:30pm 22.8 20.0 16.4 67 3.9 SE 26 30 14 16 1017.4 1017.1 0.0
05/04:00pm 22.9 19.9 16.7 68 3.8 SE 28 33 15 18 1017.3 1017.0 0.0
05/03:30pm 23.2 20.5 16.7 67 4.0 SE 26 32 14 17 1017.4 1017.1 0.0
05/03:00pm 23.5 20.8 16.5 65 4.3 SE 26 30 14 16 1017.5 1017.2 0.0
05/02:30pm 23.7 21.2 17.2 67 4.0 SE 26 30 14 16 1017.4 1017.1 0.0
05/02:00pm 23.8 21.8 18.4 72 3.4 SSE 26 33 14 18 1017.5 1017.2 0.0
05/01:30pm 23.4 21.1 18.5 74 3.1 SSE 28 37 15 20 1017.5 1017.2 0.0
05/01:00pm 23.3 20.7 18.6 75 3.0 SSE 30 39 16 21 1017.6 1017.3 0.0
05/12:30pm 23.3 20.5 19.0 77 2.7 SSE 32 37 17 20 1018.0 1017.7 0.0
05/12:00pm 23.4 21.1 19.3 78 2.6 SSE 30 39 16 21 1018.5 1018.2 0.0
05/11:30am 22.9 20.0 18.9 78 2.5 SSE 32 39 17 21 1018.9 1018.6 0.0
05/11:00am 22.5 19.4 18.5 78 2.5 S 32 39 17 21 1019.1 1018.8 0.0
05/10:30am 22.5 19.4 18.3 77 2.6 SSE 32 41 17 22 1019.4 1019.1 0.0
05/10:00am 22.2 18.8 18.2 78 2.5 S 33 43 18 23 1019.6 1019.3 0.0
05/09:30am 21.8 18.3 18.0 79 2.4 S 33 41 18 22 1019.8 1019.5 0.0
05/09:00am 21.5 17.9 17.7 79 2.4 S 33 41 18 22 1019.7 1019.4 0.0
05/08:30am 21.5 18.1 18.1 81 2.1 S 33 41 18 22 1019.6 1019.3 0.0
05/08:00am 21.2 17.7 18.0 82 2.0 S 33 39 18 21 1019.4 1019.1 0.0
05/07:30am 20.6 18.4 17.8 84 1.7 S 26 33 14 18 1019.1 1018.8 0.0
05/07:00am 20.8 18.7 18.0 84 1.7 S 26 35 14 19 1018.8 1018.5 0.0
05/06:30am 20.7 19.0 18.1 85 1.6 S 24 32 13 17 1018.5 1018.2 0.0
05/06:00am 20.8 19.9 18.2 85 1.6 S 20 28 11 15 1018.2 1017.9 0.0
05/05:30am 20.6 19.1 17.8 84 1.7 S 22 28 12 15 1017.9 1017.6 0.0
05/05:00am 20.2 18.5 17.2 83 1.8 S 22 24 12 13 1017.5 1017.2 0.0
05/04:30am 20.2 18.8 17.0 82 2.0 S 20 24 11 13 1017.4 1017.1 0.0
05/04:00am 20.3 18.6 17.1 82 2.0 S 22 26 12 14 1017.2 1016.9 0.0
05/03:30am 20.5 18.7 16.9 80 2.2 S 22 26 12 14 1017.0 1016.7 0.0
05/03:00am 21.7 19.1 16.0 70 3.4 SSE 24 30 13 16 1016.9 1016.6 0.0
05/02:30am 21.8 19.3 16.1 70 3.4 SE 24 30 13 16 1017.0 1016.7 0.0
05/02:00am 21.7 19.4 15.8 69 3.5 SE 22 26 12 14 1017.1 1016.8 0.0
05/01:30am 21.8 19.8 15.4 67 3.8 SSE 20 26 11 14 1017.2 1016.9 0.0
05/01:00am 21.8 18.8 14.9 65 4.1 SE 24 28 13 15 1017.3 1017.0 0.0
05/12:30am 21.8 19.3 15.2 66 3.9 SE 22 26 12 14 1017.5 1017.2 0.0
05/12:00am 21.9 19.1 15.3 66 3.9 SE 24 26 13 14 1017.7 1017.4 0.0
 
Date/Time
EST
Temp
°C
App
Temp
°C
Dew
Point
Rel
Hum
%
Delta-T
°C
Wind Press
QNH
hPa
Press
MSL
hPa
Rain
since 9 am
mm
Dir
 
Spd
km/h
Gust
km/h
Spd
kts
Gust
kts
04/11:30pm 21.9 19.5 15.3 66 3.9 SE 22 26 12 14 1018.1 1017.8 0.0
04/11:00pm 22.0 19.3 15.6 67 3.8 SE 24 28 13 15 1018.1 1017.8 0.0
04/10:30pm 22.2 19.2 15.8 67 3.9 SE 26 32 14 17 1018.1 1017.8 0.0
04/10:00pm 22.2 19.0 15.3 65 4.1 ESE 26 32 14 17 1018.3 1018.0 0.0
04/09:30pm 22.3 18.8 15.4 65 4.1 ESE 28 32 15 17 1018.3 1018.0 0.0
04/09:00pm 22.4 19.3 15.7 66 4.0 ESE 26 30 14 16 1018.2 1017.9 0.0
04/08:30pm 22.4 19.2 15.3 64 4.3 ESE 26 30 14 16 1018.1 1017.8 0.0
04/08:00pm 22.5 19.3 15.4 64 4.3 ESE 26 32 14 17 1017.9 1017.6 0.0
04/07:30pm 22.5 19.5 15.8 66 4.0 ESE 26 32 14 17 1017.5 1017.2 0.0
04/07:00pm 22.6 19.2 15.9 66 4.0 ESE 28 33 15 18 1017.0 1016.7 0.0
04/06:30pm 22.5 18.2 15.4 64 4.3 ESE 32 37 17 20 1016.5 1016.2 0.0
04/06:00pm 22.4 18.1 15.5 65 4.1 ESE 32 35 17 19 1016.1 1015.8 0.0
04/05:30pm 22.4 17.7 14.3 60 4.8 ESE 32 37 17 20 1015.8 1015.5 0.0
04/05:00pm 22.4 17.3 13.2 56 5.3 ESE 32 37 17 20 1015.6 1015.3 0.0
04/04:30pm 22.7 18.0 13.2 55 5.5 ESE 30 35 16 19 1015.4 1015.1 0.0
04/04:00pm 22.7 19.3 13.7 56 5.2 ESE 24 28 13 15 1015.2 1014.9 0.0
04/03:30pm 23.1 19.4 12.7 52 6.0 SE 24 28 13 15 1014.9 1014.6 0.0
04/03:00pm 23.3 18.9 12.9 52 6.0 SE 28 32 15 17 1014.7 1014.4 0.0
04/02:30pm 23.5 19.9 13.1 52 6.0 SE 24 28 13 15 1014.5 1014.2 0.0
04/02:00pm 24.1 19.9 13.6 52 6.2 SSE 28 32 15 17 1014.4 1014.1 0.0
04/01:30pm 24.0 20.9 14.4 55 5.7 SSE 24 30 13 16 1014.4 1014.1 0.0
04/01:00pm 23.5 20.8 15.5 60 4.8 SSE 24 32 13 17 1014.5 1014.2 0.0
04/12:30pm 23.6 19.8 14.6 57 5.4 SSE 28 37 15 20 1014.7 1014.4 0.0
04/12:00pm 23.8 20.4 15.8 61 4.9 S 28 39 15 21 1015.0 1014.7 0.0
04/11:30am 23.3 19.1 15.6 62 4.6 S 32 43 17 23 1014.9 1014.6 0.0
04/11:00am 23.5 18.9 15.0 59 5.1 S 33 39 18 21 1015.2 1014.9 0.0
04/10:30am 23.9 20.8 15.7 60 5.0 S 26 33 14 18 1015.5 1015.2 0.0
04/10:00am 23.3 21.0 15.6 62 4.6 S 22 28 12 15 1016.4 1016.1 0.0
04/09:30am 22.5 18.5 15.1 63 4.4 S 30 39 16 21 1016.4 1016.1 0.0
04/09:00am 22.2 18.3 15.5 66 4.0 S 30 35 16 19 1016.8 1016.5 0.0
04/08:30am 22.3 19.2 15.6 66 4.0 S 26 32 14 17 1016.6 1016.3 0.0
04/08:00am 22.6 20.3 16.6 69 3.7 S 24 30 13 16 1016.2 1015.9 0.0
04/07:30am 22.6 21.2 17.1 71 3.4 S 20 26 11 14 1015.7 1015.4 0.0
04/07:00am 22.8 21.0 17.0 70 3.6 S 22 28 12 15 1015.2 1014.9 0.0
04/06:30am 22.6 20.3 16.6 69 3.7 S 24 26 13 14 1014.8 1014.5 0.0
04/06:00am 22.6 20.9 17.1 71 3.4 S 22 26 12 14 1014.4 1014.1 0.0
04/05:30am 22.5 21.8 17.4 73 3.2 SSE 17 20 9 11 1014.0 1013.7 0.0
04/05:00am 22.6 21.2 17.1 71 3.4 S 20 26 11 14 1013.6 1013.3 0.0
04/04:30am 22.7 20.0 16.5 68 3.8 S 26 32 14 17 1013.3 1013.1 0.0
04/04:00am 22.9 20.1 16.4 67 4.0 S 26 28 14 15 1013.1 1012.8 0.0
04/03:30am 23.0 20.5 17.0 69 3.7 SSW 26 32 14 17 1013.0 1012.7 0.0
04/03:00am 23.7 21.9 16.0 62 4.7 SW 20 22 11 12 1012.7 1012.4 0.0
04/02:30am 23.0 22.8 18.5 76 2.8 W 17 20 9 11 1012.6 1012.3 0.0
04/02:00am 22.7 22.3 20.2 86 1.6 WNW 22 26 12 14 1012.8 1012.5 0.0
04/01:30am 22.6 22.7 20.3 87 1.5 WNW 20 24 11 13 1012.9 1012.6 0.0
04/01:00am 22.7 22.9 20.6 88 1.4 WNW 20 24 11 13 1013.1 1012.8 0.0
04/12:30am 22.7 23.1 20.6 88 1.4 NW 19 22 10 12 1013.6 1013.3 0.0
04/12:00am 22.9 23.4 20.8 88 1.4 WNW 19 22 10 12 1013.5 1013.2 0.0
 
Date/Time
EST
Temp
°C
App
Temp
°C
Dew
Point
Rel
Hum
%
Delta-T
°C
Wind Press
QNH
hPa
Press
MSL
hPa
Rain
since 9 am
mm
Dir
 
Spd
km/h
Gust
km/h
Spd
kts
Gust
kts
03/11:30pm 23.1 23.6 20.8 87 1.5 NW 19 22 10 12 1013.6 1013.3 0.0
03/11:00pm 23.2 24.1 20.9 87 1.5 NW 17 22 9 12 1013.7 1013.4 0.0
03/10:30pm 23.1 23.3 20.6 86 1.6 NW 20 24 11 13 1013.8 1013.5 0.0
03/10:00pm 23.2 23.9 20.5 85 1.8 NW 17 20 9 11 1013.8 1013.5 0.0
03/09:30pm 23.2 24.3 20.5 85 1.8 NNW 15 19 8 10 1013.9 1013.6 0.0
03/09:00pm 23.2 23.9 20.5 85 1.8 NNW 17 22 9 12 1014.0 1013.7 0.0
03/08:30pm 23.3 25.1 20.4 84 1.9 NNW 11 19 6 10 1013.9 1013.6 0.0
03/08:00pm 23.3 25.9 20.4 84 1.9 N 7 15 4 8 1013.6 1013.3 0.0
03/07:30pm 23.3 25.4 20.1 82 2.1 NNW 9 13 5 7 1013.3 1013.1 0.0
03/07:00pm 23.2 25.7 19.8 81 2.2 N 6 9 3 5 1012.9 1012.6 0.0
03/06:30pm 23.4 26.1 20.2 82 2.1 NNW 6 11 3 6 1012.6 1012.3 0.0
03/06:00pm 23.7 26.6 20.6 83 2.0 N 6 9 3 5 1012.1 1011.8 0.0
03/05:30pm 23.8 26.5 20.3 81 2.3 NNW 6 13 3 7 1011.8 1011.5 0.0
03/05:00pm 24.1 26.8 20.2 79 2.5 N 6 13 3 7 1011.5 1011.2 0.0
03/04:30pm 24.4 27.0 20.1 77 2.8 N 6 13 3 7 1011.5 1011.2 0.0
03/04:00pm 25.0 28.1 20.3 75 3.1 NNW 4 11 2 6 1011.2 1010.9 0.0
03/03:30pm 25.7 29.2 19.6 69 4.0 CALM 0 0 0 0 1011.1 1010.8 0.0
03/03:00pm 27.1 28.6 19.7 64 4.8 NNW 11 15 6 8 1010.9 1010.6 0.0
03/02:30pm 27.1 28.7 20.0 65 4.6 NNW 11 17 6 9 1010.9 1010.6 0.0
03/02:00pm 26.7 26.9 20.1 67 4.3 NNW 19 24 10 13 1011.2 1010.9 0.0
03/01:30pm 27.0 28.8 20.3 66 4.4 NNW 11 22 6 12 1011.5 1011.2 0.0
03/01:00pm 28.0 30.4 22.2 70 3.9 NNW 13 20 7 11 1011.7 1011.4 0.0
03/12:30pm 27.1 28.5 21.8 73 3.6 NNW 17 22 9 12 1012.2 1011.9 0.0
03/12:00pm 25.4 26.6 20.6 75 3.2 NW 15 20 8 11 1012.8 1012.5 0.0
03/11:30am 24.7 24.5 19.8 74 3.2 NW 20 24 11 13 1013.1 1012.8 0.0
03/11:00am 24.9 24.7 20.6 77 2.8 NW 22 28 12 15 1013.7 1013.4 0.0
03/10:30am 23.9 23.3 20.4 81 2.3 NW 24 28 13 15 1014.0 1013.7 0.0
03/10:00am 23.5 23.3 20.6 84 1.9 NW 22 28 12 15 1014.4 1014.1 0.0
03/09:30am 23.6 23.7 20.3 82 2.1 NW 20 24 11 13 1014.6 1014.3 0.0
03/09:00am 22.4 22.5 19.9 86 1.6 NW 19 24 10 13 1014.8 1014.5 2.6
03/08:30am 21.9 21.6 19.6 87 1.5 NW 20 24 11 13 1014.9 1014.6 2.6
03/08:00am 21.9 22.6 19.6 87 1.5 NW 15 19 8 10 1014.8 1014.5 2.6
03/07:30am 21.6 22.9 19.3 87 1.5 NNW 11 13 6 7 1014.7 1014.4 2.6
03/07:00am 21.2 23.2 18.8 86 1.5 N 6 9 3 5 1014.5 1014.2 2.6
03/06:30am 20.9 22.6 18.5 86 1.5 N 7 9 4 5 1014.4 1014.1 2.6

Other Formats:

Comma delimited format used in spreadsheet applications
http://www.bom.gov.au/fwo/IDQ60801/IDQ60801.94584.axf

JavaScript Object Notation format (JSON) in row-major order
http://www.bom.gov.au/fwo/IDQ60801/IDQ60801.94584.json